createdAt,value
2023-05-15T00:03:26.204Z,10.14
2023-05-15T00:08:29.389Z,10.17
2023-05-15T00:13:32.780Z,10.21
2023-05-15T00:18:35.829Z,10.27
2023-05-15T00:23:38.819Z,10.31
2023-05-15T00:28:42.169Z,10.32
2023-05-15T00:33:45.149Z,10.32
2023-05-15T00:38:48.257Z,10.37
2023-05-15T00:43:53.253Z,10.42
2023-05-15T00:48:57.797Z,10.44
2023-05-15T00:54:00.937Z,10.48
2023-05-15T00:59:05.495Z,10.60
2023-05-15T01:04:08.538Z,10.81
2023-05-15T01:09:13.937Z,10.98
2023-05-15T01:14:16.885Z,11.15
2023-05-15T01:19:20.254Z,11.25
2023-05-15T01:24:29.661Z,11.36
2023-05-15T01:30:14.545Z,11.41
2023-05-15T01:35:41.627Z,11.43
2023-05-15T01:40:47.868Z,11.44
2023-05-15T01:45:50.806Z,11.41
2023-05-15T01:50:59.498Z,11.35
2023-05-15T01:56:04.214Z,11.25
2023-05-15T02:01:09.319Z,11.17
2023-05-15T02:06:13.887Z,11.09
2023-05-15T02:11:17.001Z,11.05
2023-05-15T02:16:20.135Z,11.00
2023-05-15T02:21:23.316Z,10.91
2023-05-15T02:26:47.923Z,10.86
2023-05-15T02:32:11.708Z,10.82
2023-05-15T02:37:21.257Z,10.79
2023-05-15T02:42:24.297Z,10.71
2023-05-15T02:47:29.171Z,10.65
2023-05-15T02:52:34.648Z,10.70
2023-05-15T02:57:37.610Z,10.86
2023-05-15T03:02:40.668Z,11.05
2023-05-15T03:07:43.822Z,11.20
2023-05-15T03:12:46.829Z,11.33
2023-05-15T03:17:49.870Z,11.41
2023-05-15T03:22:53.045Z,11.47
2023-05-15T03:27:56.057Z,11.54
2023-05-15T03:32:59.115Z,11.60
2023-05-15T03:38:02.375Z,11.64
2023-05-15T03:43:06.653Z,11.69
2023-05-15T03:48:09.667Z,11.80
2023-05-15T03:53:12.931Z,11.99
2023-05-15T03:58:15.937Z,12.17
2023-05-15T04:03:20.141Z,12.31
2023-05-15T04:08:23.285Z,12.40
2023-05-15T04:13:26.183Z,12.49
2023-05-15T04:18:29.228Z,12.60
2023-05-15T04:23:32.398Z,12.70
2023-05-15T04:28:35.826Z,12.77
2023-05-15T04:33:39.454Z,12.89
2023-05-15T04:38:42.548Z,13.02
2023-05-15T04:43:46.103Z,13.14
2023-05-15T04:48:49.074Z,13.22
2023-05-15T04:53:52.180Z,13.27
2023-05-15T04:58:55.085Z,13.32
2023-05-15T05:03:58.274Z,13.41
2023-05-15T05:09:01.539Z,13.53
2023-05-15T05:14:04.526Z,13.65
2023-05-15T05:19:07.883Z,13.74
2023-05-15T05:24:11.965Z,13.83
2023-05-15T05:29:15.202Z,13.91
2023-05-15T05:34:19.890Z,13.99
2023-05-15T05:39:22.943Z,14.07
2023-05-15T05:44:26.550Z,14.21
2023-05-15T05:49:29.656Z,14.36
2023-05-15T05:54:32.768Z,14.50
2023-05-15T05:59:36.082Z,14.68
2023-05-15T06:04:39.163Z,14.87
2023-05-15T06:09:42.409Z,15.06
2023-05-15T06:14:45.614Z,15.21
2023-05-15T06:19:48.731Z,15.30
2023-05-15T06:24:51.826Z,15.37
2023-05-15T06:29:55.653Z,15.45
2023-05-15T06:34:58.674Z,15.51
2023-05-15T06:40:02.140Z,15.51
2023-05-15T06:45:06.548Z,15.48
2023-05-15T06:50:10.422Z,15.46
2023-05-15T06:55:13.565Z,15.43
2023-05-15T07:00:17.188Z,15.44
2023-05-15T07:05:22.028Z,15.45
2023-05-15T07:10:25.163Z,15.47
2023-05-15T07:15:28.558Z,15.50
2023-05-15T07:20:33.568Z,15.60
2023-05-15T07:25:38.276Z,15.74
2023-05-15T07:30:41.645Z,15.91
2023-05-15T07:35:44.786Z,16.05
2023-05-15T07:40:47.893Z,16.21
2023-05-15T07:45:51.094Z,16.39
2023-05-15T07:50:55.543Z,16.52
2023-05-15T07:55:58.648Z,16.57
2023-05-15T08:01:01.765Z,16.57
2023-05-15T08:06:05.359Z,16.57
2023-05-15T08:11:08.386Z,16.54
2023-05-15T08:16:11.682Z,16.50
2023-05-15T08:21:14.704Z,16.41
2023-05-15T08:26:17.711Z,16.38
2023-05-15T08:31:20.761Z,16.29
2023-05-15T08:36:24.254Z,16.17
2023-05-15T08:41:47.668Z,16.05
2023-05-15T08:47:12.085Z,15.87
2023-05-15T08:52:29.893Z,15.70
2023-05-15T08:57:52.114Z,15.65
2023-05-15T09:03:11.401Z,15.59
2023-05-15T09:08:29.181Z,15.55
2023-05-15T09:13:46.127Z,15.61
2023-05-15T09:18:57.853Z,15.74
2023-05-15T09:24:31.122Z,15.99
2023-05-15T09:29:47.148Z,16.32
2023-05-15T09:40:47.220Z,17.25
2023-05-15T09:46:03.800Z,17.79
2023-05-15T09:51:34.875Z,18.26
2023-05-15T09:56:57.638Z,18.47
2023-05-15T10:02:09.730Z,18.45
2023-05-15T10:07:36.655Z,18.34
2023-05-15T10:12:39.895Z,18.24
2023-05-15T10:17:44.386Z,17.93
2023-05-15T10:22:52.668Z,17.53
2023-05-15T10:27:57.206Z,17.10
2023-05-15T10:33:01.262Z,16.80
2023-05-15T10:38:05.959Z,16.52
2023-05-15T10:43:10.396Z,16.19
2023-05-15T10:48:15.717Z,15.95
2023-05-15T10:53:20.398Z,15.89
2023-05-15T10:58:24.183Z,15.91
2023-05-15T11:03:48.863Z,15.79
2023-05-15T11:08:52.692Z,15.40
2023-05-15T11:14:04.815Z,14.91
2023-05-15T11:19:29.629Z,14.47
2023-05-15T11:24:47.485Z,14.12
2023-05-15T11:30:23.495Z,13.98
2023-05-15T11:35:34.312Z,13.92
2023-05-15T11:40:55.172Z,13.94
2023-05-15T11:46:04.410Z,14.02
2023-05-15T11:51:15.525Z,14.10
2023-05-15T11:56:22.961Z,14.09
2023-05-15T12:01:26.842Z,14.00
2023-05-15T12:06:29.978Z,13.84
2023-05-15T12:11:33.704Z,13.60
2023-05-15T12:16:36.868Z,13.37
2023-05-15T12:21:46.734Z,13.27
2023-05-15T12:26:50.179Z,13.27
2023-05-15T12:31:54.313Z,13.28
2023-05-15T12:37:00.036Z,13.30
2023-05-15T12:42:03.929Z,13.32
2023-05-15T12:47:07.045Z,13.25
2023-05-15T12:52:11.128Z,13.11
2023-05-15T12:57:14.258Z,12.96
2023-05-15T13:02:17.795Z,12.98
2023-05-15T13:07:21.630Z,12.98
2023-05-15T13:12:24.742Z,12.93
2023-05-15T13:17:30.454Z,12.85
2023-05-15T13:22:33.504Z,12.76
2023-05-15T13:27:36.406Z,12.73
2023-05-15T13:32:39.658Z,12.70
2023-05-15T13:37:43.535Z,12.66
2023-05-15T13:42:46.559Z,12.61
2023-05-15T13:47:50.816Z,12.58
2023-05-15T13:52:54.722Z,12.50
2023-05-15T13:57:57.938Z,12.38
2023-05-15T14:03:01.414Z,12.24
2023-05-15T14:08:04.805Z,12.15
2023-05-15T14:13:07.891Z,12.12
2023-05-15T14:18:12.041Z,12.16
2023-05-15T14:23:16.370Z,12.17
2023-05-15T14:28:19.428Z,12.12
2023-05-15T14:33:22.472Z,12.04
2023-05-15T14:38:25.778Z,11.96
2023-05-15T14:43:29.702Z,11.88
2023-05-15T14:48:34.724Z,11.86
2023-05-15T14:53:37.867Z,11.85
2023-05-15T14:58:41.073Z,11.85
2023-05-15T15:03:44.419Z,11.83
2023-05-15T15:08:47.525Z,11.80
2023-05-15T15:13:51.121Z,11.77
2023-05-15T15:18:54.719Z,11.77
2023-05-15T15:23:57.964Z,11.79
2023-05-15T15:29:01.184Z,11.79
2023-05-15T15:34:05.733Z,11.78
2023-05-15T15:39:11.787Z,11.80
2023-05-15T15:44:14.905Z,11.84
2023-05-15T15:49:18.033Z,11.89
2023-05-15T15:54:21.218Z,11.91
2023-05-15T15:59:24.436Z,11.90
2023-05-15T16:04:27.648Z,11.90
2023-05-15T16:09:31.157Z,11.93
2023-05-15T16:14:34.373Z,11.94
2023-05-15T16:19:37.722Z,11.94
2023-05-15T16:24:41.205Z,11.93
2023-05-15T16:29:44.726Z,11.91
2023-05-15T16:34:47.829Z,11.91
2023-05-15T16:39:51.146Z,11.91
2023-05-15T16:44:54.254Z,11.92
2023-05-15T16:49:57.377Z,11.93
2023-05-15T16:55:00.479Z,11.94
2023-05-15T17:00:05.048Z,11.95
2023-05-15T17:05:09.706Z,11.97
2023-05-15T17:10:12.948Z,12.01
2023-05-15T17:15:16.291Z,12.04
2023-05-15T17:20:19.392Z,12.06
2023-05-15T17:25:22.502Z,12.09
2023-05-15T17:30:26.146Z,12.09
2023-05-15T17:35:32.049Z,12.10
2023-05-15T17:40:36.035Z,12.09
2023-05-15T17:45:39.058Z,12.09
2023-05-15T17:50:42.559Z,12.09
2023-05-15T17:55:45.672Z,12.11
2023-05-15T18:00:48.730Z,12.14
2023-05-15T18:05:52.900Z,12.16
2023-05-15T18:10:56.199Z,12.18
2023-05-15T18:15:59.500Z,12.18
2023-05-15T18:21:03.091Z,12.18
2023-05-15T18:26:06.270Z,12.20
2023-05-15T18:31:09.677Z,12.22
2023-05-15T18:36:12.890Z,12.24
2023-05-15T18:41:16.099Z,12.27
2023-05-15T18:46:19.138Z,12.30
2023-05-15T18:51:23.724Z,12.30
2023-05-15T18:56:26.747Z,12.32
2023-05-15T19:01:29.826Z,12.35
2023-05-15T19:06:33.183Z,12.37
2023-05-15T19:11:36.194Z,12.39
2023-05-15T19:16:39.377Z,12.40
2023-05-15T19:21:42.512Z,12.43
2023-05-15T19:26:45.641Z,12.45
2023-05-15T19:31:49.208Z,12.46
2023-05-15T19:36:53.994Z,12.49
2023-05-15T19:41:58.225Z,12.53
2023-05-15T19:47:01.340Z,12.54
2023-05-15T19:52:04.640Z,12.56
2023-05-15T19:57:07.751Z,12.59
2023-05-15T20:02:11.470Z,12.59
2023-05-15T20:07:14.795Z,12.60
2023-05-15T20:12:17.891Z,12.59
2023-05-15T20:17:21.003Z,12.58
2023-05-15T20:22:24.213Z,12.57
2023-05-15T20:27:27.320Z,12.56
2023-05-15T20:32:30.721Z,12.54
2023-05-15T20:37:34.873Z,12.55
2023-05-15T20:42:38.083Z,12.58
2023-05-15T20:47:41.739Z,12.58
2023-05-15T20:52:46.424Z,12.58
2023-05-15T20:57:50.484Z,12.58
2023-05-15T21:02:53.816Z,12.56
2023-05-15T21:07:57.830Z,12.52
2023-05-15T21:13:00.946Z,12.48
2023-05-15T21:18:04.317Z,12.43
2023-05-15T21:23:07.980Z,12.36
2023-05-15T21:28:11.295Z,12.32
2023-05-15T21:33:14.300Z,12.31
2023-05-15T21:38:17.408Z,12.32
2023-05-15T21:43:20.819Z,12.34
2023-05-15T21:48:23.934Z,12.30
2023-05-15T21:53:27.355Z,12.21
2023-05-15T21:58:32.180Z,12.10
2023-05-15T22:03:35.474Z,11.95
2023-05-15T22:08:38.521Z,11.82
2023-05-15T22:13:41.708Z,11.73
2023-05-15T22:18:47.830Z,11.70
2023-05-15T22:23:51.012Z,11.66
2023-05-15T22:28:58.322Z,11.61
2023-05-15T22:34:01.232Z,11.57
2023-05-15T22:39:08.169Z,11.50
2023-05-15T22:44:11.196Z,11.44
2023-05-15T22:49:19.290Z,11.40
2023-05-15T22:54:23.381Z,11.34
2023-05-15T22:59:26.793Z,11.29
2023-05-15T23:04:29.710Z,11.22
2023-05-15T23:09:33.024Z,11.16
2023-05-15T23:14:35.929Z,11.10
2023-05-15T23:19:38.938Z,11.09
2023-05-15T23:24:41.945Z,11.10
2023-05-15T23:29:44.847Z,11.09
2023-05-15T23:34:47.855Z,11.12
2023-05-15T23:39:50.966Z,11.23
2023-05-15T23:44:53.975Z,11.40
2023-05-15T23:49:57.187Z,11.57
2023-05-15T23:55:00.392Z,11.71
